Time;durP1;ratioP1;P1;durP2;ratioP2;P2;SDS_P1;SDS_P2;PMS_P1;PMS_P2;Temp;Humidity;BMP_temperature;BMP_pressure;BME280_temperature;BME280_humidity;BME280_pressure;Samples;Min_cycle;Max_cycle;Signal;HPM_P1;HPM_P2
2023/06/19 00:00:50;;;;;;;11.75;8.77;;;;;;;16.42;100.00;100754.66;4991236;28;20030;-72
2023/06/19 00:03:15;;;;;;;9.87;7.77;;;;;;;16.39;100.00;100750.50;5007484;28;20939;-73
2023/06/19 00:05:41;;;;;;;10.17;8.00;;;;;;;16.36;100.00;100753.59;5007196;28;20033;-73
2023/06/19 00:08:06;;;;;;;10.50;8.23;;;;;;;16.31;100.00;100761.44;5007145;28;20052;-73
2023/06/19 00:10:34;;;;;;;12.47;8.20;;;;;;;16.26;100.00;100772.00;5008765;28;20083;-73
2023/06/19 00:13:00;;;;;;;11.02;8.00;;;;;;;16.21;100.00;100766.38;5018651;28;20044;-74
2023/06/19 00:15:25;;;;;;;11.57;7.63;;;;;;;16.17;100.00;100770.50;5028049;28;20013;-73
2023/06/19 00:17:51;;;;;;;9.77;7.50;;;;;;;16.13;100.00;100775.47;5027428;28;20037;-73
2023/06/19 00:20:17;;;;;;;13.43;7.73;;;;;;;16.12;100.00;100781.03;5007440;28;20038;-73
2023/06/19 00:22:43;;;;;;;10.10;7.30;;;;;;;16.12;100.00;100781.84;5006584;28;20038;-73
2023/06/19 00:25:08;;;;;;;11.20;7.17;;;;;;;16.16;100.00;100779.63;5007367;28;20053;-73
2023/06/19 00:27:33;;;;;;;9.80;7.90;;;;;;;16.18;100.00;100782.94;5006322;28;20065;-73
2023/06/19 00:30:01;;;;;;;10.07;7.57;;;;;;;16.19;100.00;100773.81;5007192;28;20036;-73
2023/06/19 00:32:27;;;;;;;9.90;8.20;;;;;;;16.16;100.00;100758.06;5007219;28;20499;-73
2023/06/19 00:34:52;;;;;;;12.75;7.90;;;;;;;16.17;100.00;100738.16;5006637;28;20053;-73
2023/06/19 00:37:18;;;;;;;10.47;7.00;;;;;;;16.12;100.00;100721.78;5007260;28;20037;-73
2023/06/19 00:39:43;;;;;;;11.80;7.10;;;;;;;16.12;100.00;100724.47;5016137;28;20029;-74
2023/06/19 00:42:11;;;;;;;9.63;7.33;;;;;;;16.14;100.00;100722.41;5006585;28;20040;-73
2023/06/19 00:44:37;;;;;;;8.82;6.90;;;;;;;16.14;100.00;100707.09;4990301;28;20029;-73
2023/06/19 00:47:04;;;;;;;10.87;7.30;;;;;;;16.19;100.00;100711.88;5009895;28;20061;-74
2023/06/19 00:49:30;;;;;;;7.90;7.05;;;;;;;16.30;100.00;100710.47;4993865;28;20073;-73
2023/06/19 00:51:56;;;;;;;9.35;6.85;;;;;;;16.36;100.00;100699.72;5006577;28;20034;-73
2023/06/19 00:54:22;;;;;;;9.88;7.70;;;;;;;16.46;100.00;100696.66;4989767;28;20033;-73
2023/06/19 00:56:48;;;;;;;12.10;7.78;;;;;;;16.46;100.00;100692.09;5006650;28;20430;-73
2023/06/19 00:59:18;;;;;;;;;;;;;;;16.51;100.00;100704.13;5007019;28;20021;-73
2023/06/19 01:01:44;;;;;;;12.75;7.50;;;;;;;16.54;100.00;100696.47;4998114;28;19960;-74
2023/06/19 01:04:09;;;;;;;8.88;7.47;;;;;;;16.51;100.00;100690.66;5014186;28;20038;-73
2023/06/19 01:07:00;;;;;;;11.30;7.25;;;;;;;16.47;100.00;100690.22;5006334;28;20046;-73
2023/06/19 01:09:30;;;;;;;8.60;7.30;;;;;;;16.47;100.00;100717.16;4990144;28;20046;-73
2023/06/19 01:12:06;;;;;;;10.80;7.28;;;;;;;16.45;100.00;100701.19;4990180;28;20113;-74
2023/06/19 01:14:44;;;;;;;10.00;7.57;;;;;;;16.43;100.00;100715.91;5005872;28;20113;-73
2023/06/19 01:17:10;;;;;;;11.57;6.97;;;;;;;16.44;100.00;100726.50;5010347;28;20064;-73
2023/06/19 01:19:36;;;;;;;9.13;7.43;;;;;;;16.39;100.00;100717.34;5002195;28;20053;-73
2023/06/19 01:22:04;;;;;;;10.82;7.07;;;;;;;16.45;100.00;100735.41;4989729;28;20156;-73
2023/06/19 01:24:29;;;;;;;10.90;7.20;;;;;;;16.43;100.00;100730.19;5012094;28;20120;-74
2023/06/19 01:26:55;;;;;;;10.30;7.90;;;;;;;16.44;100.00;100739.13;5008713;28;20129;-73
2023/06/19 01:29:21;;;;;;;12.40;8.05;;;;;;;16.48;100.00;100731.47;4989954;28;20105;-73
2023/06/19 01:31:58;;;;;;;9.70;8.02;;;;;;;16.57;100.00;100731.06;4986676;28;20160;-72
2023/06/19 01:34:26;;;;;;;10.18;7.53;;;;;;;16.59;100.00;100725.50;4985748;28;20088;-74
2023/06/19 01:36:56;;;;;;;13.50;7.97;;;;;;;16.63;100.00;100716.81;5005258;28;20045;-73
2023/06/19 01:39:23;;;;;;;11.55;8.57;;;;;;;16.66;100.00;100726.34;4987098;28;20525;-73
2023/06/19 01:41:49;;;;;;;11.80;9.05;;;;;;;16.68;100.00;100705.41;5002130;28;20108;-74
2023/06/19 01:44:15;;;;;;;18.13;8.27;;;;;;;16.74;100.00;100696.53;4981186;28;20041;-73
2023/06/19 01:46:40;;;;;;;11.52;8.52;;;;;;;16.87;100.00;100672.28;5002659;28;20026;-74
2023/06/19 01:49:08;;;;;;;10.50;7.30;;;;;;;16.88;100.00;100646.19;4985358;28;20034;-73
2023/06/19 01:51:33;;;;;;;11.45;7.97;;;;;;;16.79;100.00;100634.75;5000156;28;20038;-73
2023/06/19 01:53:59;;;;;;;10.48;7.85;;;;;;;16.77;100.00;100644.06;4999903;28;20035;-73
2023/06/19 01:56:25;;;;;;;10.47;8.60;;;;;;;16.77;100.00;100652.16;4982750;28;20478;-74
2023/06/19 01:58:51;;;;;;;10.70;7.57;;;;;;;16.81;100.00;100662.34;4982431;28;20653;-73
2023/06/19 02:01:16;;;;;;;12.97;9.20;;;;;;;16.86;100.00;100665.25;5000452;28;20057;-73
2023/06/19 02:03:41;;;;;;;10.23;8.37;;;;;;;16.86;100.00;100646.38;4998855;28;20073;-74
2023/06/19 02:06:07;;;;;;;12.70;8.83;;;;;;;16.87;100.00;100663.38;5000709;28;20454;-73
2023/06/19 02:08:32;;;;;;;14.63;8.80;;;;;;;16.93;100.00;100684.13;4999750;28;20034;-74
2023/06/19 02:10:58;;;;;;;12.13;8.90;;;;;;;16.92;100.00;100719.38;5000642;28;20026;-73
2023/06/19 02:13:23;;;;;;;14.05;10.20;;;;;;;16.99;100.00;100749.91;5000438;28;20034;-74
2023/06/19 02:15:49;;;;;;;11.23;8.50;;;;;;;17.05;100.00;100767.97;4999414;28;20053;-73
2023/06/19 02:18:14;;;;;;;13.40;10.20;;;;;;;17.04;100.00;100791.41;5000740;28;20037;-72
2023/06/19 02:20:41;;;;;;;14.10;10.18;;;;;;;17.02;100.00;100806.13;4998919;28;20068;-73
2023/06/19 02:23:06;;;;;;;13.97;9.97;;;;;;;17.02;100.00;100812.38;4999691;28;20129;-73
2023/06/19 02:25:33;;;;;;;14.20;10.73;;;;;;;17.06;100.00;100804.69;5000794;28;20038;-73
2023/06/19 02:27:58;;;;;;;12.52;10.82;;;;;;;17.04;100.00;100798.66;4999105;28;20483;-73
2023/06/19 02:30:24;;;;;;;13.07;10.40;;;;;;;17.08;100.00;100808.00;4999959;28;20033;-73
2023/06/19 02:32:49;;;;;;;13.17;9.93;;;;;;;17.08;100.00;100794.53;4980944;28;20038;-73
2023/06/19 02:35:15;;;;;;;14.67;9.53;;;;;;;17.17;100.00;100801.38;5001515;28;20037;-73
2023/06/19 02:37:40;;;;;;;12.60;10.25;;;;;;;17.15;100.00;100799.94;4997825;28;20061;-76
2023/06/19 02:40:08;;;;;;;15.35;10.43;;;;;;;17.30;100.00;100798.72;4999891;28;20442;-76
2023/06/19 02:42:34;;;;;;;15.77;10.23;;;;;;;17.24;100.00;100791.44;4997799;28;20474;-73
2023/06/19 02:45:03;;;;;;;15.38;10.90;;;;;;;17.34;100.00;100796.44;4998382;28;20026;-73
2023/06/19 02:47:32;;;;;;;14.02;10.27;;;;;;;17.41;100.00;100802.66;5000280;28;20125;-73
2023/06/19 02:50:02;;;;;;;14.63;11.00;;;;;;;17.44;100.00;100793.31;4980284;28;20029;-73
2023/06/19 02:52:28;;;;;;;14.93;11.07;;;;;;;17.44;100.00;100790.63;5004036;28;20057;-73
2023/06/19 02:54:53;;;;;;;13.50;11.18;;;;;;;17.36;100.00;100802.44;5000857;28;20113;-73
2023/06/19 02:57:19;;;;;;;15.82;11.98;;;;;;;17.36;100.00;100809.72;4983811;28;20038;-73
2023/06/19 02:59:45;;;;;;;17.70;12.48;;;;;;;17.40;100.00;100808.28;4996959;28;20026;-73
2023/06/19 03:02:11;;;;;;;14.00;10.40;;;;;;;17.48;100.00;100803.50;4989181;28;20080;-73
2023/06/19 03:04:36;;;;;;;14.68;11.63;;;;;;;17.54;100.00;100780.25;4998248;28;20065;-73
2023/06/19 03:07:03;;;;;;;16.48;10.20;;;;;;;17.51;100.00;100765.31;4983828;28;20120;-73
2023/06/19 03:09:29;;;;;;;15.35;10.35;;;;;;;17.64;100.00;100761.75;4998364;28;20033;-74
2023/06/19 03:11:54;;;;;;;16.50;11.07;;;;;;;17.66;100.00;100756.16;4983758;28;20038;-73
2023/06/19 03:14:20;;;;;;;15.20;10.80;;;;;;;17.73;100.00;100746.19;4999618;28;20034;-73
2023/06/19 03:16:45;;;;;;;15.27;10.03;;;;;;;17.73;100.00;100746.19;4998063;28;20762;-73
2023/06/19 03:19:11;;;;;;;16.48;9.85;;;;;;;17.83;100.00;100745.78;5004437;28;20285;-73
2023/06/19 03:21:36;;;;;;;11.43;9.53;;;;;;;17.84;100.00;100739.34;4998684;28;20044;-73
2023/06/19 03:24:02;;;;;;;17.13;10.73;;;;;;;17.86;100.00;100726.44;4998585;28;20454;-74
2023/06/19 03:26:28;;;;;;;;;;;;;;;17.79;100.00;100721.03;4997800;28;20044;-73
2023/06/19 03:28:58;;;;;;;16.13;10.80;;;;;;;17.81;100.00;100724.38;4984337;28;20350;-73
2023/06/19 03:31:26;;;;;;;14.57;9.75;;;;;;;17.85;100.00;100708.59;5006872;28;20157;-73
2023/06/19 03:33:51;;;;;;;13.57;10.15;;;;;;;17.90;100.00;100696.13;4998652;28;20125;-74
2023/06/19 03:36:18;;;;;;;14.82;10.15;;;;;;;17.92;100.00;100690.50;4999372;28;20042;-73
2023/06/19 03:38:49;;;;;;;12.25;9.05;;;;;;;17.95;100.00;100679.28;4996244;28;20093;-73
2023/06/19 03:41:17;;;;;;;14.40;9.73;;;;;;;17.97;100.00;100673.66;4984509;28;20053;-74
2023/06/19 03:43:42;;;;;;;11.07;7.57;;;;;;;18.05;100.00;100654.50;4997128;28;20030;-73
2023/06/19 03:46:08;;;;;;;12.73;9.13;;;;;;;18.09;100.00;100634.13;5008465;28;20037;-73
2023/06/19 03:48:34;;;;;;;15.23;9.30;;;;;;;18.12;100.00;100615.63;5005707;28;20021;-74
2023/06/19 03:51:00;;;;;;;11.52;8.50;;;;;;;18.06;100.00;100584.06;4985368;28;20042;-74
2023/06/19 03:53:27;;;;;;;;;;;;;;;18.19;100.00;100553.47;5001112;28;20433;-73
2023/06/19 03:55:53;;;;;;;13.00;8.13;;;;;;;18.18;100.00;100530.19;4997821;28;20400;-73
2023/06/19 03:58:18;;;;;;;10.33;7.57;;;;;;;18.16;100.00;100507.13;4999159;28;20022;-73
2023/06/19 04:00:44;;;;;;;9.33;6.97;;;;;;;18.28;100.00;100483.75;4998604;28;20435;-76
2023/06/19 04:03:09;;;;;;;10.50;7.33;;;;;;;18.30;100.00;100451.94;5008497;28;20037;-73
2023/06/19 04:05:35;;;;;;;10.83;7.33;;;;;;;18.26;100.00;100439.91;5001687;28;20431;-73
2023/06/19 04:08:00;;;;;;;11.77;7.40;;;;;;;18.35;100.00;100444.00;5003012;28;20030;-73
2023/06/19 04:10:25;;;;;;;11.03;7.67;;;;;;;18.40;100.00;100452.25;5003307;28;20284;-73
2023/06/19 04:12:51;;;;;;;9.97;8.13;;;;;;;18.32;100.00;100445.25;5000901;28;20076;-73
2023/06/19 04:15:16;;;;;;;13.37;8.13;;;;;;;18.42;100.00;100442.06;5000984;28;20053;-74
2023/06/19 04:17:41;;;;;;;13.73;7.23;;;;;;;18.46;100.00;100435.16;4983826;28;20030;-74
2023/06/19 04:20:11;;;;;;;9.55;8.15;;;;;;;18.40;100.00;100406.31;4997840;28;20487;-73
2023/06/19 04:22:38;;;;;;;10.38;7.15;;;;;;;18.39;100.00;100401.97;4999599;28;20682;-73
2023/06/19 04:25:06;;;;;;;9.82;7.00;;;;;;;18.51;100.00;100421.81;5001093;28;20046;-74
2023/06/19 04:27:31;;;;;;;9.35;7.07;;;;;;;18.39;100.00;100404.66;5002186;28;20033;-73
2023/06/19 04:29:56;;;;;;;9.97;7.00;;;;;;;18.48;100.00;100432.25;5001018;28;20372;-74
2023/06/19 04:32:22;;;;;;;11.27;8.10;;;;;;;18.58;100.00;100423.63;5001990;28;20026;-74
2023/06/19 04:34:47;;;;;;;8.00;6.60;;;;;;;18.61;100.00;100420.47;5000945;28;20716;-72
2023/06/19 04:37:12;;;;;;;10.63;7.23;;;;;;;18.72;100.00;100390.81;5003310;28;20069;-73
2023/06/19 04:39:38;;;;;;;8.27;6.57;;;;;;;18.68;100.00;100345.53;5000996;28;20040;-73
2023/06/19 04:42:03;;;;;;;9.87;7.03;;;;;;;18.74;100.00;100350.84;5001708;28;20033;-73
2023/06/19 04:44:33;;;;;;;10.90;7.47;;;;;;;18.81;100.00;100334.59;5002808;28;20038;-74
2023/06/19 04:47:01;;;;;;;10.68;7.28;;;;;;;18.85;100.00;100319.56;5003834;28;20034;-73
2023/06/19 04:49:29;;;;;;;9.23;6.85;;;;;;;18.89;100.00;100301.81;5001240;28;20049;-73
2023/06/19 04:51:55;;;;;;;9.82;7.07;;;;;;;18.91;100.00;100299.69;4985318;28;20077;-73
2023/06/19 04:54:21;;;;;;;10.13;7.18;;;;;;;18.94;100.00;100249.72;5001476;28;20038;-73
2023/06/19 04:56:46;;;;;;;7.93;7.13;;;;;;;18.97;100.00;100252.81;5001143;28;20069;-73
2023/06/19 04:59:11;;;;;;;8.63;7.00;;;;;;;18.93;100.00;100243.50;5007293;28;20057;-74
2023/06/19 05:01:40;;;;;;;11.03;7.13;;;;;;;18.98;100.00;100248.22;4999982;28;20030;-74
2023/06/19 05:04:05;;;;;;;9.98;7.00;;;;;;;18.94;100.00;100210.00;5000798;28;20509;-74
2023/06/19 05:06:31;;;;;;;9.07;6.57;;;;;;;18.87;100.00;100222.81;5002925;28;20025;-74
2023/06/19 05:08:56;;;;;;;12.03;7.70;;;;;;;18.90;100.00;100225.03;5003489;28;20068;-74
2023/06/19 05:11:22;;;;;;;7.78;6.53;;;;;;;19.04;100.00;100236.50;5001181;28;20033;-73
2023/06/19 05:13:47;;;;;;;8.77;7.67;;;;;;;18.90;100.00;100203.41;5000473;28;20034;-74
2023/06/19 05:16:16;;;;;;;8.13;6.23;;;;;;;18.93;100.00;100243.50;5005940;28;20029;-74
2023/06/19 05:18:43;;;;;;;9.85;6.95;;;;;;;19.09;100.00;100260.16;5005671;28;20445;-74
2023/06/19 05:21:08;;;;;;;13.50;7.47;;;;;;;19.11;100.00;100263.47;5013731;28;20030;-74
2023/06/19 05:23:35;;;;;;;8.80;7.07;;;;;;;19.15;100.00;100260.06;5001894;28;20053;-74
2023/06/19 05:26:00;;;;;;;9.55;7.47;;;;;;;19.09;100.00;100223.09;5000525;28;20022;-74
2023/06/19 05:28:25;;;;;;;12.43;7.67;;;;;;;19.08;100.00;100231.44;5002012;28;20096;-74
2023/06/19 05:30:51;;;;;;;10.03;7.53;;;;;;;19.02;100.00;100199.91;5002222;28;20117;-74
2023/06/19 05:33:17;;;;;;;11.17;8.10;;;;;;;18.95;100.00;100208.94;5000112;28;20033;-74
2023/06/19 05:35:43;;;;;;;7.95;6.63;;;;;;;19.04;100.00;100236.50;5003105;28;20080;-74
2023/06/19 05:38:08;;;;;;;;;;;;;;;19.02;100.00;100240.50;4998092;28;20041;-74
2023/06/19 05:40:34;;;;;;;8.82;7.35;;;;;;;19.11;100.00;100233.69;5000810;28;19917;-74
2023/06/19 05:42:59;;;;;;;11.23;7.60;;;;;;;18.85;100.00;100249.25;5000612;28;20133;-74
2023/06/19 05:45:24;;;;;;;7.53;6.67;;;;;;;18.94;100.00;100283.03;5000323;28;20073;-74
2023/06/19 05:47:50;;;;;;;12.57;7.67;;;;;;;18.94;100.00;100301.97;4999220;28;20406;-74
2023/06/19 05:50:15;;;;;;;7.90;6.83;;;;;;;19.07;100.00;100300.94;5002354;28;20041;-74
2023/06/19 05:52:43;;;;;;;10.40;8.17;;;;;;;19.18;100.00;100269.59;5004920;28;20063;-74
2023/06/19 05:55:09;;;;;;;10.48;7.97;;;;;;;19.15;100.00;100268.19;4997914;28;20490;-73
2023/06/19 05:57:34;;;;;;;11.90;7.57;;;;;;;19.16;100.00;100305.00;4999638;28;20036;-74
2023/06/19 06:00:00;;;;;;;10.90;7.57;;;;;;;19.17;100.00;100335.56;5001749;28;20034;-74
2023/06/19 06:02:25;;;;;;;9.53;7.00;;;;;;;19.11;100.00;100312.97;5001491;28;20491;-74
2023/06/19 06:04:51;;;;;;;11.07;6.95;;;;;;;19.12;100.00;100316.50;5000157;28;20427;-74
2023/06/19 06:07:16;;;;;;;9.97;7.00;;;;;;;19.12;100.00;100324.63;5002808;28;20501;-74
2023/06/19 06:09:41;;;;;;;9.53;6.77;;;;;;;19.04;100.00;100322.25;4998025;28;20032;-74
2023/06/19 06:12:07;;;;;;;9.27;7.43;;;;;;;19.09;100.00;100296.13;5002832;28;20487;-74
2023/06/19 06:14:33;;;;;;;11.60;7.93;;;;;;;19.10;100.00;100305.91;4981584;28;20493;-74
2023/06/19 06:16:58;;;;;;;8.50;6.93;;;;;;;19.11;100.00;100285.91;4984481;28;20037;-74
2023/06/19 06:19:24;;;;;;;12.43;7.77;;;;;;;19.04;100.00;100323.06;5001015;28;20548;-74
2023/06/19 06:21:49;;;;;;;11.17;8.13;;;;;;;19.07;100.00;100324.47;5002504;28;20025;-75
2023/06/19 06:24:15;;;;;;;9.60;7.22;;;;;;;18.90;100.00;100310.78;4999971;28;20045;-74
2023/06/19 06:26:41;;;;;;;12.40;8.20;;;;;;;19.05;100.00;100369.88;4988024;28;20033;-74
2023/06/19 06:29:07;;;;;;;10.63;8.02;;;;;;;19.03;100.00;100355.75;5002087;28;20064;-73
2023/06/19 06:31:33;;;;;;;;;;;;;;;19.08;100.00;100366.69;5001368;28;20026;-74
2023/06/19 06:33:59;;;;;;;10.68;7.13;;;;;;;19.11;100.00;100383.31;4999180;28;20432;-73
2023/06/19 06:36:24;;;;;;;14.73;7.63;;;;;;;19.09;100.00;100371.06;4982401;28;20018;-75
2023/06/19 06:38:50;;;;;;;10.98;8.02;;;;;;;19.05;100.00;100372.56;4998971;28;20041;-76
2023/06/19 06:41:15;;;;;;;8.30;7.50;;;;;;;18.92;100.00;100341.94;5006363;28;20529;-75
2023/06/19 06:43:42;;;;;;;12.03;7.37;;;;;;;19.09;100.00;100407.06;4980035;28;20586;-75
2023/06/19 06:46:08;;;;;;;11.35;8.00;;;;;;;19.11;100.00;100407.66;4995562;28;20033;-75
2023/06/19 06:48:34;;;;;;;12.82;8.00;;;;;;;19.11;100.00;100417.69;4999695;28;20044;-75
2023/06/19 06:51:01;;;;;;;8.87;7.50;;;;;;;19.29;100.00;100419.50;4999714;28;20030;-75
2023/06/19 06:53:31;;;;;;;13.05;8.73;;;;;;;19.21;100.00;100380.06;4999408;28;20042;-75
2023/06/19 06:55:58;;;;;;;11.02;8.35;;;;;;;19.14;100.00;100349.56;5000181;28;20394;-75
2023/06/19 06:58:23;;;;;;;10.43;7.50;;;;;;;19.02;100.00;100289.19;4998766;28;20034;-75
2023/06/19 07:00:50;;;;;;;12.87;8.57;;;;;;;19.01;100.00;100303.75;4997960;28;20061;-75
2023/06/19 07:03:16;;;;;;;10.70;8.70;;;;;;;18.96;100.00;100309.84;5001057;28;20038;-75
2023/06/19 07:05:41;;;;;;;11.57;8.40;;;;;;;19.11;100.00;100383.31;4997217;28;20041;-76
2023/06/19 07:08:07;;;;;;;12.17;8.57;;;;;;;19.36;100.00;100391.31;4984175;28;20026;-75
2023/06/19 07:10:32;;;;;;;11.27;8.80;;;;;;;19.26;100.00;100287.38;4999739;28;20044;-76
2023/06/19 07:12:57;;;;;;;14.53;9.13;;;;;;;19.41;100.00;100244.47;4984198;28;20029;-76
2023/06/19 07:15:23;;;;;;;11.73;9.20;;;;;;;19.44;100.00;100213.41;4982521;28;20125;-76
2023/06/19 07:17:48;;;;;;;11.53;9.27;;;;;;;19.51;100.00;100200.56;4981647;28;20360;-75
2023/06/19 07:20:14;;;;;;;12.80;8.30;;;;;;;19.54;100.00;100187.38;5005656;28;20042;-75
2023/06/19 07:22:41;;;;;;;12.10;8.82;;;;;;;19.75;100.00;100232.03;4998715;28;20026;-76
2023/06/19 07:25:07;;;;;;;10.20;8.02;;;;;;;19.91;100.00;100206.13;4982474;28;20048;-74
2023/06/19 07:27:32;;;;;;;13.82;9.02;;;;;;;19.67;100.00;100109.69;4999104;28;20037;-73
2023/06/19 07:29:58;;;;;;;15.50;9.87;;;;;;;19.46;100.00;100090.28;5000350;28;20372;-74
2023/06/19 07:32:23;;;;;;;13.27;10.43;;;;;;;19.64;100.00;100140.75;5000587;28;20025;-75
2023/06/19 07:34:49;;;;;;;11.50;9.73;;;;;;;19.76;100.00;100157.88;4996488;28;20396;-76
2023/06/19 07:37:17;;;;;;;11.00;9.10;;;;;;;19.66;100.00;100130.50;5008033;28;20029;-75
2023/06/19 07:39:47;;;;;;;13.02;9.18;;;;;;;19.51;100.00;100262.84;4999756;28;20475;-75
2023/06/19 07:42:14;;;;;;;11.52;9.10;;;;;;;19.45;100.00;100380.16;4991987;28;20435;-74
2023/06/19 07:44:40;;;;;;;12.63;9.57;;;;;;;19.27;100.00;100452.25;5002881;28;20022;-73
2023/06/19 07:47:06;;;;;;;14.27;11.02;;;;;;;19.15;100.00;100524.38;5003856;28;20508;-75
2023/06/19 07:49:31;;;;;;;12.45;9.18;;;;;;;19.18;100.00;100545.59;5004185;28;20029;-73
2023/06/19 07:51:57;;;;;;;14.23;8.97;;;;;;;19.23;100.00;100629.66;5002463;28;20088;-73
2023/06/19 07:54:22;;;;;;;13.00;9.33;;;;;;;19.24;100.00;100666.47;5004609;28;20022;-73
2023/06/19 07:56:47;;;;;;;17.17;9.63;;;;;;;19.18;100.00;100705.25;5000908;28;20455;-73
2023/06/19 07:59:14;;;;;;;11.50;9.43;;;;;;;18.93;100.00;100706.06;4992283;28;20439;-73
2023/06/19 08:01:39;;;;;;;12.55;9.48;;;;;;;19.01;100.00;100747.41;5002953;28;20048;-72
2023/06/19 08:04:05;;;;;;;13.10;9.98;;;;;;;19.07;100.00;100819.63;4986427;28;20029;-72
2023/06/19 08:06:30;;;;;;;11.80;8.65;;;;;;;19.11;100.00;100823.56;5003708;28;20057;-72
2023/06/19 08:08:56;;;;;;;13.33;9.63;;;;;;;19.01;100.00;100890.81;5003611;28;20030;-72
2023/06/19 08:11:21;;;;;;;14.00;10.07;;;;;;;18.77;100.00;100810.16;5003786;28;20030;-73
2023/06/19 08:13:46;;;;;;;15.33;9.77;;;;;;;18.95;100.00;100876.28;5000615;28;20101;-72
2023/06/19 08:16:13;;;;;;;13.23;9.97;;;;;;;18.97;100.00;100880.44;5001867;28;20049;-72
2023/06/19 08:18:38;;;;;;;12.13;10.32;;;;;;;18.90;100.00;100901.25;5002572;28;20029;-72
2023/06/19 08:21:04;;;;;;;12.10;10.43;;;;;;;18.83;100.00;100876.13;5003007;28;20049;-72
2023/06/19 08:23:29;;;;;;;12.97;10.73;;;;;;;18.55;100.00;100797.97;5002180;28;20109;-72
2023/06/19 08:25:54;;;;;;;14.70;10.87;;;;;;;18.57;100.00;100776.97;5003371;28;20217;-72
2023/06/19 08:28:20;;;;;;;13.03;11.40;;;;;;;18.46;100.00;100727.09;5003567;28;20029;-72
2023/06/19 08:30:45;;;;;;;12.70;10.43;;;;;;;18.54;100.00;100718.75;5003862;28;20038;-72
2023/06/19 08:33:12;;;;;;;14.47;11.10;;;;;;;18.56;100.00;100726.63;5010475;28;20037;-72
2023/06/19 08:35:38;;;;;;;16.45;11.70;;;;;;;18.72;100.00;100747.75;5011217;28;20032;-72
2023/06/19 08:38:03;;;;;;;13.40;10.52;;;;;;;18.63;100.00;100735.53;4985381;28;20030;-72
2023/06/19 08:40:29;;;;;;;19.13;10.60;;;;;;;18.75;100.00;100741.09;5005924;28;20459;-72
2023/06/19 08:42:55;;;;;;;15.60;11.13;;;;;;;18.78;100.00;100740.72;4999985;28;20030;-75
2023/06/19 08:45:21;;;;;;;13.80;10.32;;;;;;;18.98;100.00;100730.56;5009661;28;20037;-72
2023/06/19 08:47:48;;;;;;;13.77;11.25;;;;;;;19.10;100.00;100774.00;5005971;28;20421;-72
2023/06/19 08:50:13;;;;;;;15.77;11.75;;;;;;;18.78;100.00;100692.03;5002089;28;20034;-72
2023/06/19 08:52:39;;;;;;;14.88;11.07;;;;;;;19.03;100.00;100726.38;5003168;28;20026;-72
2023/06/19 08:55:06;;;;;;;13.85;11.35;;;;;;;19.08;100.00;100707.63;5001166;28;20033;-75
2023/06/19 08:57:35;;;;;;;12.95;10.98;;;;;;;19.05;100.00;100695.34;5001797;28;20022;-73
2023/06/19 09:00:01;;;;;;;12.52;10.68;;;;;;;19.09;100.00;100672.22;5005841;28;20125;-73
2023/06/19 09:02:37;;;;;;;13.00;11.50;;;;;;;19.13;100.00;100662.63;5001256;28;20036;-73
2023/06/19 09:05:11;;;;;;;12.68;10.75;;;;;;;19.40;100.00;100668.63;5007496;28;20312;-73
2023/06/19 09:07:36;;;;;;;15.88;11.13;;;;;;;19.29;100.00;100628.78;5001148;28;20076;-73
2023/06/19 09:10:18;;;;;;;14.57;11.00;;;;;;;19.37;100.00;100608.69;4999678;28;20058;-73
2023/06/19 09:12:58;;;;;;;14.63;11.73;;;;;;;19.90;100.00;100624.41;4998263;28;20034;-73
2023/06/19 09:15:28;;;;;;;13.93;10.90;;;;;;;20.15;100.00;100608.00;5000195;28;20034;-73
2023/06/19 09:18:08;;;;;;;15.48;11.77;;;;;;;20.95;100.00;100627.72;4999485;28;20080;-73
2023/06/19 09:20:38;;;;;;;12.32;9.98;;;;;;;21.26;100.00;100499.78;4999180;28;20454;-73
2023/06/19 09:23:03;;;;;;;12.43;11.10;;;;;;;21.35;100.00;100429.63;5002015;28;20044;-73
2023/06/19 09:25:29;;;;;;;17.10;11.67;;;;;;;20.75;100.00;100243.66;5000388;28;20025;-73
2023/06/19 09:27:55;;;;;;;12.93;10.80;;;;;;;20.65;100.00;100330.28;5001863;28;20644;-73
2023/06/19 09:30:20;;;;;;;12.77;10.57;;;;;;;21.07;100.00;100411.41;5003979;28;20452;-73
2023/06/19 09:32:46;;;;;;;12.65;10.40;;;;;;;21.32;100.00;100378.53;4998317;28;20061;-73
2023/06/19 09:35:12;;;;;;;14.10;11.13;;;;;;;21.43;100.00;100246.53;5002726;28;20030;-73
2023/06/19 09:37:39;;;;;;;16.30;10.87;;;;;;;21.65;100.00;100208.56;5001686;28;20065;-73
2023/06/19 09:40:10;;;;;;;13.43;11.02;;;;;;;21.53;100.00;100173.34;5002618;28;20669;-73
2023/06/19 09:42:39;;;;;;;13.43;10.75;;;;;;;21.92;100.00;100056.53;5000275;28;20148;-73
2023/06/19 09:45:07;;;;;;;12.73;10.90;;;;;;;21.85;100.00;100097.47;5001079;28;20495;-73
2023/06/19 09:47:37;;;;;;;12.40;10.93;;;;;;;22.19;100.00;100219.63;5006089;28;20038;-73
2023/06/19 09:50:04;;;;;;;15.68;12.98;;;;;;;22.42;100.00;100041.00;5001619;28;20089;-73
2023/06/19 09:52:29;;;;;;;13.23;10.30;;;;;;;22.60;100.00;100152.16;5002215;28;20040;-74
2023/06/19 09:55:08;;;;;;;16.25;10.25;;;;;;;23.46;100.00;100050.50;5001779;28;20045;-74
2023/06/19 09:57:34;;;;;;;12.55;10.88;;;;;;;22.39;100.00;99753.31;4999249;28;20080;-73
2023/06/19 10:00:09;;;;;;;12.50;11.25;;;;;;;22.61;100.00;99887.22;5001289;28;20033;-73
2023/06/19 10:02:40;;;;;;;14.25;11.85;;;;;;;23.13;100.00;100092.50;5007296;28;20141;-74
2023/06/19 10:05:08;;;;;;;12.93;11.63;;;;;;;23.41;100.00;99924.34;5003472;28;20416;-73
2023/06/19 10:07:35;;;;;;;15.40;11.18;;;;;;;24.05;100.00;99923.16;5001309;28;20042;-73
2023/06/19 10:10:08;;;;;;;13.23;10.55;;;;;;;25.04;100.00;99841.66;4985152;28;20073;-74
2023/06/19 10:12:42;;;;;;;13.68;11.45;;;;;;;24.51;97.28;99666.69;5001372;28;20273;-74
2023/06/19 10:15:19;;;;;;;15.25;11.23;;;;;;;24.97;95.31;99691.00;4996789;28;20041;-74
2023/06/19 10:17:49;;;;;;;11.57;10.38;;;;;;;25.17;96.14;99842.94;4998976;28;20096;-74
2023/06/19 10:20:23;;;;;;;16.08;11.63;;;;;;;25.60;90.99;99632.84;5000901;28;20342;-74
2023/06/19 10:23:10;;;;;;;13.30;11.02;;;;;;;25.10;89.35;99512.88;5001815;28;20034;-74
2023/06/19 10:25:41;;;;;;;15.52;11.68;;;;;;;23.83;95.38;99687.09;5001864;28;20502;-74
2023/06/19 10:28:30;;;;;;;12.95;10.60;;;;;;;23.89;98.14;99884.16;4999618;28;20345;-74
2023/06/19 10:30:58;;;;;;;13.85;10.63;;;;;;;24.52;96.50;99892.06;4999465;28;20058;-74
2023/06/19 10:33:26;;;;;;;12.43;11.13;;;;;;;24.11;96.13;99810.25;4999682;28;20080;-74
2023/06/19 10:35:52;;;;;;;11.82;9.98;;;;;;;24.21;97.30;99924.81;4997730;28;20038;-74
2023/06/19 10:38:17;;;;;;;12.60;10.80;;;;;;;24.41;94.59;99832.03;5001088;28;20471;-74
2023/06/19 10:40:44;;;;;;;13.68;10.70;;;;;;;24.15;95.06;99857.72;4998102;28;20040;-74
2023/06/19 10:43:10;;;;;;;12.20;10.88;;;;;;;24.84;92.26;99843.41;5003537;28;20414;-74
2023/06/19 10:45:36;;;;;;;13.95;12.40;;;;;;;24.96;89.44;99716.66;5000351;28;20383;-74
2023/06/19 10:48:03;;;;;;;13.03;11.07;;;;;;;25.16;88.94;99753.94;5000174;28;20037;-74
2023/06/19 10:50:29;;;;;;;12.60;11.30;;;;;;;25.13;85.55;99571.56;5000417;28;20048;-74
2023/06/19 10:52:57;;;;;;;16.50;12.15;;;;;;;26.27;82.04;99581.75;4998978;28;20022;-74
2023/06/19 10:55:22;;;;;;;14.55;11.13;;;;;;;26.25;80.71;99476.47;4984015;28;20096;-74
2023/06/19 10:57:49;;;;;;;11.88;10.57;;;;;;;25.80;80.72;99437.72;5000182;28;20038;-74
2023/06/19 11:00:24;;;;;;;14.63;12.07;;;;;;;25.94;81.77;99607.34;5008371;28;20034;-74
2023/06/19 11:02:49;;;;;;;11.95;10.60;;;;;;;26.11;80.35;99553.78;4998267;28;20041;-74
2023/06/19 11:05:15;;;;;;;15.70;11.43;;;;;;;25.66;79.44;99454.88;5004356;28;20030;-74
2023/06/19 11:07:40;;;;;;;13.23;10.82;;;;;;;24.99;81.08;99486.75;5000841;28;20042;-74